Stony Ridge, OH

8:48 AM EDT on August 29, 2015 (GMT -0400)
Lemoyne | | Change Station
CLOSE
Current Station
Personal Weather Station
Location: Perrysburg, OH
Elevation: 640 ft
Nearby Weather Stations

Elev 640 ft 41.49 °N, 83.47 °W | Updated 9 seconds ago

Partly Cloudy
Partly Cloudy
66.6 °F
Feels Like 66.6 °F
N
0.0
Wind Variable Wind from ENE
Gusts 0.0 mph

Today
High -- | Low -- °F
--% Chance of Precip.
Yesterday
High -- | Low -- °F
Precip. -- in
6:56 AM 8:12 PM
Full, 100% visible
Pressure 30.15 in
Visibility 10.0 miles
Clouds Clear
Dew Point 59 °F
Humidity 76%
Rainfall 0.00 in
Snow Depth Not available.
UV 1.0 out of 12
Pollen 8.60 out of 12
Air Quality Not available.
Flu Activity Not available.
METAR KTDZ 291153Z AUTO 14003KT 10SM CLR 17/14 A3015 RMK AO2 SLP208 T01670139 10183 20161 53008
Pressure 30.15 in
Visibility 10.0 miles
Clouds Clear
Dew Point 59 °F
Humidity 76%
Rainfall 0.00 in
Snow Depth Not available.
UV 1.0 out of 12
Pollen 8.60 out of 12
Air Quality Not available.
Flu Activity Not available.
METAR KTDZ 291153Z AUTO 14003KT 10SM CLR 17/14 A3015 RMK AO2 SLP208 T01670139 10183 20161 53008

10-Day Weather Forecast

×

Almanac

Astronomy

Aug. 29, 2015 Rise Set
Actual Time
Civil Twilight
Nautical Twilight
Astronomical Twilight
Moon
Length of Visible Light
Length of Day
Tomorrow will be .
, % of the Moon is Illuminated

Today's Extremes

State Highs State Lows

Community

WunderPhotos

Upload Photos

1,850,677 photos uploaded!

WunderBlogs® & News

Nearby

Air Quality

  Air Quality AQ Index Pollutant
Not available.

Snow Depth

Station Depth Elevation

Earthquake Activity

City Distance Mag. Time & Date
Minimum magnitude displayed is 2.5.

Coastal Water Temperatures

Place Temperature

Stations

Nearby Weather Stations

Station Location Temp. Windchill Dew Point Humidity Wind Precip. Elev Updated Type